Maxwell, New Mexico
Current Conditions -  °F | °C
As of 6:53 PM on Friday 24 Oct 2014 (Local Time) from KRTN Reporting Station
Clear Clear  
Wind Chill: 67°   Ceiling: Unl
Heat Index: 67°   Visibility: 10mi
Dew Point: 27°   Wind: 5mph
Humidity: 22%   Direction: 220°SW
Pressure: 30.25"   Gusts: NA
Location:  36.54°N, 104.54°W
Report Text: KRTN 250053Z AUTO 22004KT 10SM CLR 19/M03 A3025 RMK AO2 SLP190 T01941028
Loading
Personal Weather Stations






























Interactive Weather Map
Tropical Storm Tracking
New forecast layout! Learn more

10-Day Weather Forecast

Advertisements
Track Severe Weather on mobile